sensor_id;sensor_type;location;lat;lon;timestamp;P1;durP1;ratioP1;P2;durP2;ratioP2
77170;SDS011;66144;50.020;14.422;2023-04-15T00:00:14;3.40;;;2.30;;
77170;SDS011;66144;50.020;14.422;2023-04-15T00:02:40;3.38;;;2.60;;
77170;SDS011;66144;50.020;14.422;2023-04-15T00:05:06;3.53;;;2.15;;
77170;SDS011;66144;50.020;14.422;2023-04-15T00:07:32;3.15;;;2.22;;
77170;SDS011;66144;50.020;14.422;2023-04-15T00:09:57;3.08;;;2.00;;
77170;SDS011;66144;50.020;14.422;2023-04-15T00:12:23;3.30;;;1.83;;
77170;SDS011;66144;50.020;14.422;2023-04-15T00:14:49;3.15;;;1.90;;
77170;SDS011;66144;50.020;14.422;2023-04-15T00:17:15;4.47;;;2.33;;
77170;SDS011;66144;50.020;14.422;2023-04-15T00:19:41;3.22;;;2.15;;
77170;SDS011;66144;50.020;14.422;2023-04-15T00:22:08;2.58;;;1.50;;
77170;SDS011;66144;50.020;14.422;2023-04-15T00:24:33;3.97;;;1.90;;
77170;SDS011;66144;50.020;14.422;2023-04-15T00:26:58;3.60;;;1.85;;
77170;SDS011;66144;50.020;14.422;2023-04-15T00:29:24;2.72;;;1.52;;
77170;SDS011;66144;50.020;14.422;2023-04-15T00:31:50;2.65;;;1.45;;
77170;SDS011;66144;50.020;14.422;2023-04-15T00:34:15;3.05;;;1.60;;
77170;SDS011;66144;50.020;14.422;2023-04-15T00:36:40;2.05;;;1.17;;
77170;SDS011;66144;50.020;14.422;2023-04-15T00:39:06;2.65;;;1.17;;
77170;SDS011;66144;50.020;14.422;2023-04-15T00:41:31;2.03;;;1.20;;
77170;SDS011;66144;50.020;14.422;2023-04-15T00:43:58;2.35;;;1.30;;
77170;SDS011;66144;50.020;14.422;2023-04-15T00:46:24;2.35;;;1.35;;
77170;SDS011;66144;50.020;14.422;2023-04-15T00:48:53;2.42;;;1.35;;
77170;SDS011;66144;50.020;14.422;2023-04-15T00:51:18;1.88;;;1.25;;
77170;SDS011;66144;50.020;14.422;2023-04-15T00:53:44;1.75;;;1.10;;
77170;SDS011;66144;50.020;14.422;2023-04-15T00:56:09;2.28;;;1.20;;
77170;SDS011;66144;50.020;14.422;2023-04-15T00:58:35;2.53;;;1.20;;
77170;SDS011;66144;50.020;14.422;2023-04-15T01:01:01;2.25;;;1.33;;
77170;SDS011;66144;50.020;14.422;2023-04-15T01:03:26;2.55;;;1.33;;
77170;SDS011;66144;50.020;14.422;2023-04-15T01:05:53;1.80;;;1.17;;
77170;SDS011;66144;50.020;14.422;2023-04-15T01:08:25;2.15;;;1.30;;
77170;SDS011;66144;50.020;14.422;2023-04-15T01:10:55;2.15;;;1.27;;
77170;SDS011;66144;50.020;14.422;2023-04-15T01:13:22;2.00;;;1.15;;
77170;SDS011;66144;50.020;14.422;2023-04-15T01:15:49;2.03;;;1.30;;
77170;SDS011;66144;50.020;14.422;2023-04-15T01:18:15;2.85;;;1.50;;
77170;SDS011;66144;50.020;14.422;2023-04-15T01:20:41;2.25;;;1.40;;
77170;SDS011;66144;50.020;14.422;2023-04-15T01:23:07;2.53;;;1.40;;
77170;SDS011;66144;50.020;14.422;2023-04-15T01:25:32;2.53;;;1.50;;
77170;SDS011;66144;50.020;14.422;2023-04-15T01:27:59;2.00;;;1.42;;
77170;SDS011;66144;50.020;14.422;2023-04-15T01:30:24;2.67;;;1.83;;
77170;SDS011;66144;50.020;14.422;2023-04-15T01:32:51;3.65;;;1.92;;
77170;SDS011;66144;50.020;14.422;2023-04-15T01:35:17;2.80;;;1.98;;
77170;SDS011;66144;50.020;14.422;2023-04-15T01:37:42;2.63;;;1.92;;
77170;SDS011;66144;50.020;14.422;2023-04-15T01:40:08;3.08;;;2.20;;
77170;SDS011;66144;50.020;14.422;2023-04-15T01:42:35;2.85;;;2.05;;
77170;SDS011;66144;50.020;14.422;2023-04-15T01:45:01;3.95;;;2.22;;
77170;SDS011;66144;50.020;14.422;2023-04-15T01:47:27;2.10;;;1.75;;
77170;SDS011;66144;50.020;14.422;2023-04-15T01:49:52;3.33;;;2.13;;
77170;SDS011;66144;50.020;14.422;2023-04-15T01:54:43;4.33;;;2.13;;
77170;SDS011;66144;50.020;14.422;2023-04-15T01:59:34;3.15;;;2.10;;
77170;SDS011;66144;50.020;14.422;2023-04-15T02:02:00;4.30;;;2.10;;
77170;SDS011;66144;50.020;14.422;2023-04-15T02:04:25;2.92;;;1.88;;
77170;SDS011;66144;50.020;14.422;2023-04-15T02:06:52;3.30;;;2.03;;
77170;SDS011;66144;50.020;14.422;2023-04-15T02:09:17;3.63;;;1.88;;
77170;SDS011;66144;50.020;14.422;2023-04-15T02:14:08;5.85;;;2.25;;
77170;SDS011;66144;50.020;14.422;2023-04-15T02:16:34;2.80;;;2.33;;
77170;SDS011;66144;50.020;14.422;2023-04-15T02:21:25;3.35;;;2.28;;
77170;SDS011;66144;50.020;14.422;2023-04-15T02:23:50;3.58;;;2.03;;
77170;SDS011;66144;50.020;14.422;2023-04-15T02:26:17;2.63;;;1.77;;
77170;SDS011;66144;50.020;14.422;2023-04-15T02:28:43;2.85;;;1.90;;
77170;SDS011;66144;50.020;14.422;2023-04-15T02:31:08;2.90;;;2.05;;
77170;SDS011;66144;50.020;14.422;2023-04-15T02:33:34;2.75;;;1.92;;
77170;SDS011;66144;50.020;14.422;2023-04-15T02:36:00;2.65;;;1.83;;
77170;SDS011;66144;50.020;14.422;2023-04-15T02:38:26;3.10;;;1.88;;
77170;SDS011;66144;50.020;14.422;2023-04-15T02:40:51;2.72;;;1.77;;
77170;SDS011;66144;50.020;14.422;2023-04-15T02:43:17;3.35;;;2.25;;
77170;SDS011;66144;50.020;14.422;2023-04-15T02:45:44;2.90;;;2.00;;
77170;SDS011;66144;50.020;14.422;2023-04-15T02:48:11;2.72;;;1.90;;
77170;SDS011;66144;50.020;14.422;2023-04-15T02:50:36;2.30;;;1.73;;
77170;SDS011;66144;50.020;14.422;2023-04-15T02:53:03;4.20;;;1.77;;
77170;SDS011;66144;50.020;14.422;2023-04-15T02:55:29;3.05;;;1.92;;
77170;SDS011;66144;50.020;14.422;2023-04-15T02:57:55;3.05;;;2.03;;
77170;SDS011;66144;50.020;14.422;2023-04-15T03:00:22;3.13;;;1.92;;
77170;SDS011;66144;50.020;14.422;2023-04-15T03:02:49;3.22;;;1.95;;
77170;SDS011;66144;50.020;14.422;2023-04-15T03:05:16;2.92;;;1.92;;
77170;SDS011;66144;50.020;14.422;2023-04-15T03:07:41;2.30;;;1.80;;
77170;SDS011;66144;50.020;14.422;2023-04-15T03:10:07;2.28;;;1.65;;
77170;SDS011;66144;50.020;14.422;2023-04-15T03:12:32;2.78;;;1.77;;
77170;SDS011;66144;50.020;14.422;2023-04-15T03:14:58;2.60;;;1.88;;
77170;SDS011;66144;50.020;14.422;2023-04-15T03:17:25;2.55;;;1.67;;
77170;SDS011;66144;50.020;14.422;2023-04-15T03:19:51;2.50;;;1.60;;
77170;SDS011;66144;50.020;14.422;2023-04-15T03:22:16;2.70;;;1.60;;
77170;SDS011;66144;50.020;14.422;2023-04-15T03:24:42;2.50;;;1.52;;
77170;SDS011;66144;50.020;14.422;2023-04-15T03:27:07;2.60;;;1.75;;
77170;SDS011;66144;50.020;14.422;2023-04-15T03:29:33;2.30;;;1.50;;
77170;SDS011;66144;50.020;14.422;2023-04-15T03:31:58;3.95;;;1.95;;
77170;SDS011;66144;50.020;14.422;2023-04-15T03:34:24;3.33;;;1.52;;
77170;SDS011;66144;50.020;14.422;2023-04-15T03:36:49;2.97;;;1.60;;
77170;SDS011;66144;50.020;14.422;2023-04-15T03:39:15;2.53;;;1.55;;
77170;SDS011;66144;50.020;14.422;2023-04-15T03:44:06;3.63;;;1.97;;
77170;SDS011;66144;50.020;14.422;2023-04-15T03:46:31;2.42;;;1.60;;
77170;SDS011;66144;50.020;14.422;2023-04-15T03:48:57;2.35;;;1.48;;
77170;SDS011;66144;50.020;14.422;2023-04-15T03:51:22;3.08;;;2.13;;
77170;SDS011;66144;50.020;14.422;2023-04-15T03:53:48;3.55;;;1.80;;
77170;SDS011;66144;50.020;14.422;2023-04-15T03:56:13;2.78;;;1.63;;
77170;SDS011;66144;50.020;14.422;2023-04-15T03:58:38;3.38;;;1.95;;
77170;SDS011;66144;50.020;14.422;2023-04-15T04:01:04;2.88;;;1.80;;
77170;SDS011;66144;50.020;14.422;2023-04-15T04:03:29;3.85;;;2.30;;
77170;SDS011;66144;50.020;14.422;2023-04-15T04:05:55;3.03;;;2.40;;
77170;SDS011;66144;50.020;14.422;2023-04-15T04:08:21;3.22;;;2.22;;
77170;SDS011;66144;50.020;14.422;2023-04-15T04:10:46;5.70;;;3.08;;
77170;SDS011;66144;50.020;14.422;2023-04-15T04:13:11;6.57;;;3.90;;
77170;SDS011;66144;50.020;14.422;2023-04-15T04:15:37;8.05;;;4.55;;
77170;SDS011;66144;50.020;14.422;2023-04-15T04:18:02;6.13;;;3.97;;
77170;SDS011;66144;50.020;14.422;2023-04-15T04:20:27;7.35;;;4.68;;
77170;SDS011;66144;50.020;14.422;2023-04-15T04:22:53;6.43;;;3.95;;
77170;SDS011;66144;50.020;14.422;2023-04-15T04:27:44;6.83;;;4.30;;
77170;SDS011;66144;50.020;14.422;2023-04-15T04:30:09;7.60;;;4.65;;
77170;SDS011;66144;50.020;14.422;2023-04-15T04:32:35;7.57;;;4.57;;
77170;SDS011;66144;50.020;14.422;2023-04-15T04:37:26;5.03;;;3.20;;
77170;SDS011;66144;50.020;14.422;2023-04-15T04:39:51;6.88;;;3.88;;
77170;SDS011;66144;50.020;14.422;2023-04-15T04:42:17;6.20;;;3.85;;
77170;SDS011;66144;50.020;14.422;2023-04-15T04:44:42;5.43;;;3.55;;
77170;SDS011;66144;50.020;14.422;2023-04-15T04:47:07;6.03;;;3.65;;
77170;SDS011;66144;50.020;14.422;2023-04-15T04:51:58;5.20;;;3.30;;
77170;SDS011;66144;50.020;14.422;2023-04-15T04:54:24;5.95;;;3.85;;
77170;SDS011;66144;50.020;14.422;2023-04-15T04:56:50;5.35;;;3.42;;
77170;SDS011;66144;50.020;14.422;2023-04-15T05:01:41;5.67;;;3.03;;
77170;SDS011;66144;50.020;14.422;2023-04-15T05:06:32;5.60;;;3.58;;
77170;SDS011;66144;50.020;14.422;2023-04-15T05:08:57;5.95;;;3.60;;
77170;SDS011;66144;50.020;14.422;2023-04-15T05:13:48;6.47;;;4.07;;
77170;SDS011;66144;50.020;14.422;2023-04-15T05:18:38;5.85;;;3.97;;
77170;SDS011;66144;50.020;14.422;2023-04-15T05:23:30;4.88;;;3.55;;
77170;SDS011;66144;50.020;14.422;2023-04-15T05:28:20;7.17;;;4.03;;
77170;SDS011;66144;50.020;14.422;2023-04-15T05:33:11;5.40;;;3.87;;
77170;SDS011;66144;50.020;14.422;2023-04-15T05:35:36;7.75;;;5.15;;
77170;SDS011;66144;50.020;14.422;2023-04-15T05:38:02;6.32;;;4.32;;
77170;SDS011;66144;50.020;14.422;2023-04-15T05:40:27;6.45;;;4.53;;
77170;SDS011;66144;50.020;14.422;2023-04-15T05:42:54;6.68;;;4.30;;
77170;SDS011;66144;50.020;14.422;2023-04-15T05:47:45;5.53;;;3.63;;
77170;SDS011;66144;50.020;14.422;2023-04-15T05:50:10;4.72;;;3.28;;
77170;SDS011;66144;50.020;14.422;2023-04-15T05:55:01;5.68;;;3.35;;
77170;SDS011;66144;50.020;14.422;2023-04-15T05:59:52;6.05;;;2.88;;
77170;SDS011;66144;50.020;14.422;2023-04-15T06:02:17;4.05;;;3.03;;
77170;SDS011;66144;50.020;14.422;2023-04-15T06:07:08;5.13;;;3.10;;
77170;SDS011;66144;50.020;14.422;2023-04-15T06:09:34;5.50;;;3.50;;
77170;SDS011;66144;50.020;14.422;2023-04-15T06:12:00;4.82;;;3.15;;
77170;SDS011;66144;50.020;14.422;2023-04-15T06:14:26;5.80;;;3.05;;
77170;SDS011;66144;50.020;14.422;2023-04-15T06:16:51;4.53;;;3.13;;
77170;SDS011;66144;50.020;14.422;2023-04-15T06:19:17;5.85;;;2.90;;
77170;SDS011;66144;50.020;14.422;2023-04-15T06:21:43;4.68;;;2.92;;
77170;SDS011;66144;50.020;14.422;2023-04-15T06:24:09;4.47;;;2.90;;
77170;SDS011;66144;50.020;14.422;2023-04-15T06:26:35;4.35;;;2.83;;
77170;SDS011;66144;50.020;14.422;2023-04-15T06:31:25;4.60;;;2.93;;
77170;SDS011;66144;50.020;14.422;2023-04-15T06:33:51;4.18;;;2.90;;
77170;SDS011;66144;50.020;14.422;2023-04-15T06:36:17;3.35;;;2.42;;
77170;SDS011;66144;50.020;14.422;2023-04-15T06:38:43;3.92;;;2.47;;
77170;SDS011;66144;50.020;14.422;2023-04-15T06:41:08;3.80;;;2.45;;
77170;SDS011;66144;50.020;14.422;2023-04-15T06:43:34;3.88;;;2.17;;
77170;SDS011;66144;50.020;14.422;2023-04-15T06:45:59;4.50;;;2.80;;
77170;SDS011;66144;50.020;14.422;2023-04-15T06:48:25;3.80;;;2.10;;
77170;SDS011;66144;50.020;14.422;2023-04-15T06:50:51;3.78;;;2.42;;
77170;SDS011;66144;50.020;14.422;2023-04-15T06:53:16;16.50;;;3.70;;
77170;SDS011;66144;50.020;14.422;2023-04-15T06:55:42;3.30;;;2.00;;
77170;SDS011;66144;50.020;14.422;2023-04-15T06:58:08;4.70;;;1.98;;
77170;SDS011;66144;50.020;14.422;2023-04-15T07:00:33;3.45;;;2.20;;
77170;SDS011;66144;50.020;14.422;2023-04-15T07:02:59;2.70;;;1.70;;
77170;SDS011;66144;50.020;14.422;2023-04-15T07:05:28;2.80;;;1.60;;
77170;SDS011;66144;50.020;14.422;2023-04-15T07:07:56;3.15;;;2.00;;
77170;SDS011;66144;50.020;14.422;2023-04-15T07:10:22;2.45;;;1.45;;
77170;SDS011;66144;50.020;14.422;2023-04-15T07:12:48;2.55;;;1.50;;
77170;SDS011;66144;50.020;14.422;2023-04-15T07:15:14;2.90;;;2.00;;
77170;SDS011;66144;50.020;14.422;2023-04-15T07:17:40;1.83;;;1.27;;
77170;SDS011;66144;50.020;14.422;2023-04-15T07:20:07;3.03;;;1.40;;
77170;SDS011;66144;50.020;14.422;2023-04-15T07:22:33;4.90;;;1.67;;
77170;SDS011;66144;50.020;14.422;2023-04-15T07:24:58;1.40;;;1.00;;
77170;SDS011;66144;50.020;14.422;2023-04-15T07:27:23;2.00;;;1.20;;
77170;SDS011;66144;50.020;14.422;2023-04-15T07:29:50;2.35;;;1.10;;
77170;SDS011;66144;50.020;14.422;2023-04-15T07:32:16;1.35;;;0.70;;
77170;SDS011;66144;50.020;14.422;2023-04-15T07:34:41;1.67;;;0.80;;
77170;SDS011;66144;50.020;14.422;2023-04-15T07:37:07;4.50;;;0.90;;
77170;SDS011;66144;50.020;14.422;2023-04-15T07:39:32;0.90;;;0.70;;
77170;SDS011;66144;50.020;14.422;2023-04-15T07:41:57;0.90;;;0.45;;
77170;SDS011;66144;50.020;14.422;2023-04-15T07:44:23;1.00;;;0.55;;
77170;SDS011;66144;50.020;14.422;2023-04-15T07:46:49;0.95;;;0.50;;
77170;SDS011;66144;50.020;14.422;2023-04-15T07:49:15;27.25;;;4.85;;
77170;SDS011;66144;50.020;14.422;2023-04-15T07:51:40;1.10;;;0.80;;
77170;SDS011;66144;50.020;14.422;2023-04-15T07:54:05;0.50;;;0.40;;
77170;SDS011;66144;50.020;14.422;2023-04-15T07:56:31;0.90;;;0.68;;
77170;SDS011;66144;50.020;14.422;2023-04-15T07:58:56;1.92;;;0.60;;
77170;SDS011;66144;50.020;14.422;2023-04-15T08:01:22;1.17;;;0.70;;
77170;SDS011;66144;50.020;14.422;2023-04-15T08:03:47;1.17;;;0.70;;
77170;SDS011;66144;50.020;14.422;2023-04-15T08:06:13;0.60;;;0.50;;
77170;SDS011;66144;50.020;14.422;2023-04-15T08:08:38;1.38;;;0.60;;
77170;SDS011;66144;50.020;14.422;2023-04-15T08:11:04;0.93;;;0.70;;
77170;SDS011;66144;50.020;14.422;2023-04-15T08:13:29;1.45;;;0.85;;
77170;SDS011;66144;50.020;14.422;2023-04-15T08:16:15;0.65;;;0.60;;
77170;SDS011;66144;50.020;14.422;2023-04-15T08:18:42;1.42;;;1.02;;
77170;SDS011;66144;50.020;14.422;2023-04-15T08:21:08;1.35;;;0.70;;
77170;SDS011;66144;50.020;14.422;2023-04-15T08:23:34;1.42;;;0.75;;
77170;SDS011;66144;50.020;14.422;2023-04-15T08:25:59;1.25;;;0.77;;
77170;SDS011;66144;50.020;14.422;2023-04-15T08:28:25;1.25;;;0.75;;
77170;SDS011;66144;50.020;14.422;2023-04-15T08:30:53;0.93;;;0.60;;
77170;SDS011;66144;50.020;14.422;2023-04-15T08:33:19;1.90;;;1.00;;
77170;SDS011;66144;50.020;14.422;2023-04-15T08:35:44;1.65;;;0.82;;
77170;SDS011;66144;50.020;14.422;2023-04-15T08:38:10;2.47;;;1.10;;
77170;SDS011;66144;50.020;14.422;2023-04-15T08:40:43;1.65;;;0.93;;
77170;SDS011;66144;50.020;14.422;2023-04-15T08:43:22;1.60;;;0.93;;
77170;SDS011;66144;50.020;14.422;2023-04-15T08:45:52;1.75;;;1.02;;
77170;SDS011;66144;50.020;14.422;2023-04-15T08:48:19;1.60;;;1.20;;
77170;SDS011;66144;50.020;14.422;2023-04-15T08:50:46;1.90;;;1.00;;
77170;SDS011;66144;50.020;14.422;2023-04-15T08:53:12;1.25;;;0.80;;
77170;SDS011;66144;50.020;14.422;2023-04-15T08:55:41;1.38;;;0.93;;
77170;SDS011;66144;50.020;14.422;2023-04-15T08:58:11;1.45;;;1.00;;
77170;SDS011;66144;50.020;14.422;2023-04-15T09:00:37;1.67;;;1.00;;
77170;SDS011;66144;50.020;14.422;2023-04-15T09:03:04;1.45;;;1.10;;
77170;SDS011;66144;50.020;14.422;2023-04-15T09:05:37;1.30;;;1.00;;
77170;SDS011;66144;50.020;14.422;2023-04-15T09:08:02;1.52;;;1.20;;
77170;SDS011;66144;50.020;14.422;2023-04-15T09:10:29;2.20;;;1.30;;
77170;SDS011;66144;50.020;14.422;2023-04-15T09:12:55;1.75;;;1.40;;
77170;SDS011;66144;50.020;14.422;2023-04-15T09:15:21;1.50;;;1.08;;
77170;SDS011;66144;50.020;14.422;2023-04-15T09:17:49;1.85;;;1.27;;
77170;SDS011;66144;50.020;14.422;2023-04-15T09:20:14;1.70;;;1.10;;
77170;SDS011;66144;50.020;14.422;2023-04-15T09:22:43;1.85;;;1.30;;
77170;SDS011;66144;50.020;14.422;2023-04-15T09:27:48;1.55;;;1.10;;
77170;SDS011;66144;50.020;14.422;2023-04-15T09:30:14;2.22;;;1.30;;
77170;SDS011;66144;50.020;14.422;2023-04-15T09:35:17;1.80;;;1.25;;
77170;SDS011;66144;50.020;14.422;2023-04-15T09:37:42;1.95;;;1.45;;
77170;SDS011;66144;50.020;14.422;2023-04-15T09:40:08;1.73;;;1.25;;
77170;SDS011;66144;50.020;14.422;2023-04-15T09:42:34;1.98;;;1.35;;
77170;SDS011;66144;50.020;14.422;2023-04-15T09:45:10;2.33;;;1.42;;
77170;SDS011;66144;50.020;14.422;2023-04-15T09:47:36;1.95;;;1.30;;
77170;SDS011;66144;50.020;14.422;2023-04-15T09:50:01;2.47;;;1.48;;
77170;SDS011;66144;50.020;14.422;2023-04-15T09:52:27;2.22;;;1.58;;
77170;SDS011;66144;50.020;14.422;2023-04-15T09:54:53;2.35;;;1.33;;
77170;SDS011;66144;50.020;14.422;2023-04-15T09:57:22;2.33;;;1.15;;
77170;SDS011;66144;50.020;14.422;2023-04-15T09:59:48;1.77;;;1.30;;
77170;SDS011;66144;50.020;14.422;2023-04-15T10:02:14;2.50;;;1.58;;
77170;SDS011;66144;50.020;14.422;2023-04-15T10:04:42;2.83;;;1.70;;
77170;SDS011;66144;50.020;14.422;2023-04-15T10:07:09;4.35;;;1.95;;
77170;SDS011;66144;50.020;14.422;2023-04-15T10:09:36;1.88;;;1.48;;
77170;SDS011;66144;50.020;14.422;2023-04-15T10:12:04;3.47;;;1.73;;
77170;SDS011;66144;50.020;14.422;2023-04-15T10:14:33;3.92;;;1.90;;
77170;SDS011;66144;50.020;14.422;2023-04-15T10:17:00;3.17;;;2.15;;
77170;SDS011;66144;50.020;14.422;2023-04-15T10:19:27;3.70;;;1.75;;
77170;SDS011;66144;50.020;14.422;2023-04-15T10:21:57;2.85;;;1.80;;
77170;SDS011;66144;50.020;14.422;2023-04-15T10:24:23;3.92;;;3.00;;
77170;SDS011;66144;50.020;14.422;2023-04-15T10:26:49;2.88;;;1.80;;
77170;SDS011;66144;50.020;14.422;2023-04-15T10:29:16;2.85;;;1.70;;
77170;SDS011;66144;50.020;14.422;2023-04-15T10:31:42;3.40;;;2.20;;
77170;SDS011;66144;50.020;14.422;2023-04-15T10:34:08;3.88;;;2.25;;
77170;SDS011;66144;50.020;14.422;2023-04-15T10:36:35;2.55;;;1.85;;
77170;SDS011;66144;50.020;14.422;2023-04-15T10:39:01;2.63;;;1.90;;
77170;SDS011;66144;50.020;14.422;2023-04-15T10:41:26;3.10;;;1.85;;
77170;SDS011;66144;50.020;14.422;2023-04-15T10:51:35;2.42;;;1.50;;
77170;SDS011;66144;50.020;14.422;2023-04-15T10:54:05;2.92;;;1.73;;
77170;SDS011;66144;50.020;14.422;2023-04-15T10:56:37;2.92;;;1.70;;
77170;SDS011;66144;50.020;14.422;2023-04-15T10:59:04;2.38;;;1.70;;
77170;SDS011;66144;50.020;14.422;2023-04-15T11:10:03;2.17;;;1.30;;
77170;SDS011;66144;50.020;14.422;2023-04-15T11:12:50;1.70;;;1.15;;
77170;SDS011;66144;50.020;14.422;2023-04-15T11:15:36;2.17;;;1.27;;
77170;SDS011;66144;50.020;14.422;2023-04-15T11:18:25;2.42;;;1.25;;
77170;SDS011;66144;50.020;14.422;2023-04-15T11:20:55;2.45;;;1.42;;
77170;SDS011;66144;50.020;14.422;2023-04-15T11:25:56;3.38;;;1.60;;
77170;SDS011;66144;50.020;14.422;2023-04-15T11:28:27;2.80;;;1.55;;
77170;SDS011;66144;50.020;14.422;2023-04-15T11:30:53;3.78;;;1.90;;
77170;SDS011;66144;50.020;14.422;2023-04-15T11:33:20;3.58;;;1.80;;
77170;SDS011;66144;50.020;14.422;2023-04-15T11:35:46;2.55;;;1.67;;
77170;SDS011;66144;50.020;14.422;2023-04-15T11:38:12;3.80;;;1.90;;
77170;SDS011;66144;50.020;14.422;2023-04-15T11:40:38;3.10;;;1.98;;
77170;SDS011;66144;50.020;14.422;2023-04-15T11:43:14;2.35;;;1.55;;
77170;SDS011;66144;50.020;14.422;2023-04-15T11:48:17;4.75;;;2.00;;
77170;SDS011;66144;50.020;14.422;2023-04-15T11:50:43;5.80;;;1.80;;
77170;SDS011;66144;50.020;14.422;2023-04-15T11:53:10;4.80;;;1.80;;
77170;SDS011;66144;50.020;14.422;2023-04-15T11:55:44;2.55;;;1.67;;
77170;SDS011;66144;50.020;14.422;2023-04-15T11:58:15;2.47;;;1.65;;
77170;SDS011;66144;50.020;14.422;2023-04-15T12:00:49;2.47;;;1.55;;
77170;SDS011;66144;50.020;14.422;2023-04-15T12:06:04;3.05;;;1.63;;
77170;SDS011;66144;50.020;14.422;2023-04-15T12:11:17;2.60;;;1.70;;
77170;SDS011;66144;50.020;14.422;2023-04-15T12:13:43;2.75;;;1.60;;
77170;SDS011;66144;50.020;14.422;2023-04-15T12:16:10;2.33;;;1.58;;
77170;SDS011;66144;50.020;14.422;2023-04-15T12:18:38;3.20;;;1.85;;
77170;SDS011;66144;50.020;14.422;2023-04-15T12:21:10;2.50;;;1.65;;
77170;SDS011;66144;50.020;14.422;2023-04-15T12:23:37;2.72;;;1.88;;
77170;SDS011;66144;50.020;14.422;2023-04-15T12:26:06;3.20;;;2.05;;
77170;SDS011;66144;50.020;14.422;2023-04-15T12:28:33;2.10;;;1.45;;
77170;SDS011;66144;50.020;14.422;2023-04-15T12:31:05;3.90;;;1.85;;
77170;SDS011;66144;50.020;14.422;2023-04-15T12:33:32;3.65;;;1.98;;
77170;SDS011;66144;50.020;14.422;2023-04-15T12:35:57;3.22;;;1.70;;
77170;SDS011;66144;50.020;14.422;2023-04-15T12:38:23;2.72;;;1.70;;
77170;SDS011;66144;50.020;14.422;2023-04-15T12:40:48;2.95;;;1.90;;
77170;SDS011;66144;50.020;14.422;2023-04-15T12:43:14;4.38;;;2.20;;
77170;SDS011;66144;50.020;14.422;2023-04-15T12:45:39;3.67;;;1.92;;
77170;SDS011;66144;50.020;14.422;2023-04-15T12:48:05;3.97;;;1.70;;
77170;SDS011;66144;50.020;14.422;2023-04-15T12:50:32;3.33;;;1.70;;
77170;SDS011;66144;50.020;14.422;2023-04-15T12:52:57;3.60;;;1.80;;
77170;SDS011;66144;50.020;14.422;2023-04-15T12:55:23;2.97;;;1.60;;
77170;SDS011;66144;50.020;14.422;2023-04-15T12:57:48;2.30;;;1.33;;
77170;SDS011;66144;50.020;14.422;2023-04-15T13:00:13;3.05;;;1.75;;
77170;SDS011;66144;50.020;14.422;2023-04-15T13:02:39;3.17;;;1.77;;
77170;SDS011;66144;50.020;14.422;2023-04-15T13:05:05;3.25;;;1.90;;
77170;SDS011;66144;50.020;14.422;2023-04-15T13:07:30;3.15;;;1.70;;
77170;SDS011;66144;50.020;14.422;2023-04-15T13:09:56;2.85;;;1.70;;
77170;SDS011;66144;50.020;14.422;2023-04-15T13:12:21;2.70;;;1.65;;
77170;SDS011;66144;50.020;14.422;2023-04-15T13:14:46;2.95;;;1.77;;
77170;SDS011;66144;50.020;14.422;2023-04-15T13:17:12;3.53;;;1.85;;
77170;SDS011;66144;50.020;14.422;2023-04-15T13:19:38;2.78;;;1.80;;
77170;SDS011;66144;50.020;14.422;2023-04-15T13:22:03;2.80;;;1.75;;
77170;SDS011;66144;50.020;14.422;2023-04-15T13:24:28;2.83;;;1.58;;
77170;SDS011;66144;50.020;14.422;2023-04-15T13:26:54;2.42;;;1.58;;
77170;SDS011;66144;50.020;14.422;2023-04-15T13:29:19;3.17;;;1.92;;
77170;SDS011;66144;50.020;14.422;2023-04-15T13:31:46;2.70;;;1.63;;
77170;SDS011;66144;50.020;14.422;2023-04-15T13:34:11;2.17;;;1.25;;
77170;SDS011;66144;50.020;14.422;2023-04-15T13:36:36;2.47;;;1.50;;
77170;SDS011;66144;50.020;14.422;2023-04-15T13:39:02;3.55;;;1.75;;
77170;SDS011;66144;50.020;14.422;2023-04-15T13:41:29;2.42;;;1.52;;
77170;SDS011;66144;50.020;14.422;2023-04-15T13:43:54;2.50;;;1.58;;
77170;SDS011;66144;50.020;14.422;2023-04-15T13:46:22;2.63;;;1.67;;
77170;SDS011;66144;50.020;14.422;2023-04-15T13:48:47;2.80;;;1.50;;
77170;SDS011;66144;50.020;14.422;2023-04-15T13:51:13;2.15;;;1.38;;
77170;SDS011;66144;50.020;14.422;2023-04-15T13:53:38;1.67;;;1.33;;
77170;SDS011;66144;50.020;14.422;2023-04-15T13:56:04;2.47;;;1.90;;
77170;SDS011;66144;50.020;14.422;2023-04-15T13:58:32;3.75;;;2.10;;
77170;SDS011;66144;50.020;14.422;2023-04-15T14:00:57;2.80;;;1.70;;
77170;SDS011;66144;50.020;14.422;2023-04-15T14:03:23;2.90;;;1.63;;
77170;SDS011;66144;50.020;14.422;2023-04-15T14:05:48;2.33;;;1.63;;
77170;SDS011;66144;50.020;14.422;2023-04-15T14:08:19;2.40;;;1.77;;
77170;SDS011;66144;50.020;14.422;2023-04-15T14:10:45;2.72;;;1.88;;
77170;SDS011;66144;50.020;14.422;2023-04-15T14:13:12;3.13;;;2.03;;
77170;SDS011;66144;50.020;14.422;2023-04-15T14:15:39;2.70;;;1.52;;
77170;SDS011;66144;50.020;14.422;2023-04-15T14:18:05;2.47;;;1.60;;
77170;SDS011;66144;50.020;14.422;2023-04-15T14:20:30;2.90;;;1.70;;
77170;SDS011;66144;50.020;14.422;2023-04-15T14:22:56;2.67;;;1.63;;
77170;SDS011;66144;50.020;14.422;2023-04-15T14:25:21;3.00;;;1.58;;
77170;SDS011;66144;50.020;14.422;2023-04-15T14:27:47;2.00;;;1.60;;
77170;SDS011;66144;50.020;14.422;2023-04-15T14:30:12;2.63;;;2.00;;
77170;SDS011;66144;50.020;14.422;2023-04-15T14:32:38;2.50;;;1.83;;
77170;SDS011;66144;50.020;14.422;2023-04-15T14:35:04;2.63;;;1.58;;
77170;SDS011;66144;50.020;14.422;2023-04-15T14:37:30;2.45;;;1.50;;
77170;SDS011;66144;50.020;14.422;2023-04-15T14:39:56;2.80;;;1.90;;
77170;SDS011;66144;50.020;14.422;2023-04-15T14:42:22;3.53;;;2.00;;
77170;SDS011;66144;50.020;14.422;2023-04-15T14:44:47;2.72;;;1.77;;
77170;SDS011;66144;50.020;14.422;2023-04-15T14:47:12;2.40;;;1.70;;
77170;SDS011;66144;50.020;14.422;2023-04-15T14:49:38;2.45;;;1.42;;
77170;SDS011;66144;50.020;14.422;2023-04-15T14:52:03;2.42;;;1.70;;
77170;SDS011;66144;50.020;14.422;2023-04-15T14:54:29;2.67;;;1.73;;
77170;SDS011;66144;50.020;14.422;2023-04-15T14:56:54;5.10;;;1.63;;
77170;SDS011;66144;50.020;14.422;2023-04-15T14:59:21;2.15;;;1.23;;
77170;SDS011;66144;50.020;14.422;2023-04-15T15:01:50;2.28;;;1.48;;
77170;SDS011;66144;50.020;14.422;2023-04-15T15:04:16;2.78;;;1.40;;
77170;SDS011;66144;50.020;14.422;2023-04-15T15:06:41;2.15;;;1.38;;
77170;SDS011;66144;50.020;14.422;2023-04-15T15:09:07;2.58;;;1.60;;
77170;SDS011;66144;50.020;14.422;2023-04-15T15:11:32;3.53;;;1.95;;
77170;SDS011;66144;50.020;14.422;2023-04-15T15:13:58;2.95;;;1.80;;
77170;SDS011;66144;50.020;14.422;2023-04-15T15:16:23;2.53;;;1.60;;
77170;SDS011;66144;50.020;14.422;2023-04-15T15:18:49;2.35;;;1.58;;
77170;SDS011;66144;50.020;14.422;2023-04-15T15:21:15;2.90;;;1.95;;
77170;SDS011;66144;50.020;14.422;2023-04-15T15:23:41;3.15;;;1.48;;
77170;SDS011;66144;50.020;14.422;2023-04-15T15:26:06;2.30;;;1.50;;
77170;SDS011;66144;50.020;14.422;2023-04-15T15:28:32;2.95;;;1.67;;
77170;SDS011;66144;50.020;14.422;2023-04-15T15:30:58;2.83;;;1.70;;
77170;SDS011;66144;50.020;14.422;2023-04-15T15:33:24;3.22;;;1.80;;
77170;SDS011;66144;50.020;14.422;2023-04-15T15:35:49;2.03;;;1.40;;
77170;SDS011;66144;50.020;14.422;2023-04-15T15:38:15;4.60;;;2.67;;
77170;SDS011;66144;50.020;14.422;2023-04-15T15:40:40;3.47;;;2.00;;
77170;SDS011;66144;50.020;14.422;2023-04-15T15:43:06;1.95;;;1.42;;
77170;SDS011;66144;50.020;14.422;2023-04-15T15:45:31;2.47;;;1.58;;
77170;SDS011;66144;50.020;14.422;2023-04-15T15:47:57;2.42;;;1.40;;